Time,TemperatureF,DewpointF,PressureIn,WindDirection,WindDirectionDegrees,WindSpeedMPH,WindSpeedGustMPH,Humidity,HourlyPrecipIn,Conditions,Clouds,dailyrainin,SoftwareType,DateUTC
2013-01-28 00:00:00,25.0,20.0,-100.00,NE,39,2.0,2.0,82,0.00,,,0.00,,2013-01-28 07:00:00,
2013-01-28 00:41:00,25.0,20.0,-100.00,NE,39,2.0,2.0,82,0.00,,,0.00,,2013-01-28 07:41:00,
2013-01-28 00:52:00,25.0,20.0,-100.00,NE,39,2.0,2.0,82,0.00,,,0.00,,2013-01-28 07:52:00,
2013-01-28 01:00:00,23.0,19.0,-100.00,East,80,6.0,7.0,85,0.00,,,0.00,,2013-01-28 08:00:00,
2013-01-28 01:42:00,23.0,19.0,-100.00,East,80,6.0,7.0,85,0.00,,,0.00,,2013-01-28 08:42:00,
2013-01-28 01:52:00,23.0,19.0,-100.00,East,80,6.0,7.0,85,0.00,,,0.00,,2013-01-28 08:52:00,
2013-01-28 02:00:00,23.0,18.0,-100.00,NE,50,1.0,2.0,82,0.00,,,0.00,,2013-01-28 09:00:00,
2013-01-28 02:42:00,23.0,18.0,-100.00,NE,50,1.0,2.0,82,0.00,,,0.00,,2013-01-28 09:42:00,
2013-01-28 02:52:00,23.0,18.0,-100.00,NE,50,1.0,2.0,82,0.00,,,0.00,,2013-01-28 09:52:00,
2013-01-28 03:00:00,22.0,18.0,-100.00,East,79,5.0,9.0,87,0.00,,,0.00,,2013-01-28 10:00:00,
2013-01-28 03:41:00,22.0,18.0,-100.00,East,79,5.0,9.0,87,0.00,,,0.00,,2013-01-28 10:41:00,
2013-01-28 03:52:00,22.0,18.0,-100.00,East,79,5.0,9.0,87,0.00,,,0.00,,2013-01-28 10:52:00,
2013-01-28 04:00:00,21.0,19.0,-100.00,ENE,68,6.0,7.0,90,0.00,,,0.00,,2013-01-28 11:00:00,
2013-01-28 04:32:00,21.0,19.0,-100.00,ENE,68,6.0,7.0,90,0.00,,,0.00,,2013-01-28 11:32:00,
2013-01-28 04:42:00,21.0,19.0,-100.00,ENE,68,6.0,7.0,90,0.00,,,0.00,,2013-01-28 11:42:00,
2013-01-28 04:52:00,21.0,19.0,-100.00,ENE,68,6.0,7.0,90,0.00,,,0.00,,2013-01-28 11:52:00,
2013-01-28 05:00:00,20.0,18.0,-100.00,ENE,75,3.0,4.0,90,0.00,,,0.00,,2013-01-28 12:00:00,
2013-01-28 05:32:00,20.0,18.0,-100.00,ENE,75,3.0,4.0,90,0.00,,,0.00,,2013-01-28 12:32:00,
2013-01-28 05:42:00,20.0,18.0,-100.00,ENE,75,3.0,4.0,90,0.00,,,0.00,,2013-01-28 12:42:00,
2013-01-28 05:52:00,20.0,18.0,-100.00,ENE,75,3.0,4.0,90,0.00,,,0.00,,2013-01-28 12:52:00,
2013-01-28 06:00:00,20.0,17.0,-100.00,East,79,4.0,6.0,89,0.00,,,0.00,,2013-01-28 13:00:00,
2013-01-28 06:33:00,20.0,17.0,-100.00,East,79,4.0,6.0,89,0.00,,,0.00,,2013-01-28 13:33:00,
2013-01-28 06:42:00,20.0,17.0,-100.00,East,79,4.0,6.0,89,0.00,,,0.00,,2013-01-28 13:42:00,
2013-01-28 06:53:00,20.0,17.0,-100.00,East,79,4.0,6.0,89,0.00,,,0.00,,2013-01-28 13:53:00,
2013-01-28 07:00:00,20.0,15.0,-100.00,NW,309,5.0,7.0,80,0.00,,,0.00,,2013-01-28 14:00:00,
2013-01-28 07:42:00,20.0,15.0,-100.00,NW,309,5.0,7.0,80,0.00,,,0.00,,2013-01-28 14:42:00,
2013-01-28 07:53:00,20.0,15.0,-100.00,NW,309,5.0,7.0,80,0.00,,,0.00,,2013-01-28 14:53:00,
2013-01-28 08:00:00,18.0,16.0,-100.00,NE,53,2.0,3.0,92,0.00,,,0.00,,2013-01-28 15:00:00,
2013-01-28 08:33:00,18.0,16.0,-100.00,NE,53,2.0,3.0,92,0.00,,,0.00,,2013-01-28 15:33:00,
2013-01-28 08:43:00,18.0,16.0,-100.00,NE,53,2.0,3.0,92,0.00,,,0.00,,2013-01-28 15:43:00,
2013-01-28 08:53:00,18.0,16.0,-100.00,NE,53,2.0,3.0,92,0.00,,,0.00,,2013-01-28 15:53:00,
2013-01-28 09:00:00,18.0,17.0,-100.00,ENE,73,4.0,5.0,92,0.00,,,0.00,,2013-01-28 16:00:00,
2013-01-28 09:42:00,18.0,17.0,-100.00,ENE,73,4.0,5.0,92,0.00,,,0.00,,2013-01-28 16:42:00,
2013-01-28 09:53:00,18.0,17.0,-100.00,ENE,73,4.0,5.0,92,0.00,,,0.00,,2013-01-28 16:53:00,
2013-01-28 10:00:00,18.0,16.0,-100.00,ENE,57,5.0,6.0,91,0.00,,,0.00,,2013-01-28 17:00:00,
2013-01-28 10:42:00,18.0,16.0,-100.00,ENE,57,5.0,6.0,91,0.00,,,0.00,,2013-01-28 17:42:00,
2013-01-28 10:52:00,18.0,16.0,-100.00,ENE,57,5.0,6.0,91,0.00,,,0.00,,2013-01-28 17:52:00,
2013-01-28 11:00:00,18.0,16.0,-100.00,East,88,5.0,8.0,91,0.00,,,0.00,,2013-01-28 18:00:00,
2013-01-28 11:42:00,18.0,16.0,-100.00,East,88,5.0,8.0,91,0.00,,,0.00,,2013-01-28 18:42:00,
2013-01-28 11:52:00,18.0,16.0,-100.00,East,88,5.0,8.0,91,0.00,,,0.00,,2013-01-28 18:52:00,
2013-01-28 12:00:00,18.0,16.0,-100.00,NE,55,5.0,6.0,90,0.00,,,0.00,,2013-01-28 19:00:00,
2013-01-28 12:42:00,18.0,16.0,-100.00,NE,55,5.0,6.0,90,0.00,,,0.00,,2013-01-28 19:42:00,
2013-01-28 12:52:00,18.0,16.0,-100.00,NE,55,5.0,6.0,90,0.00,,,0.00,,2013-01-28 19:52:00,
2013-01-28 13:00:00,20.0,16.0,-100.00,East,80,6.0,8.0,87,0.00,,,0.00,,2013-01-28 20:00:00,
2013-01-28 13:42:00,20.0,16.0,-100.00,East,80,6.0,8.0,87,0.00,,,0.00,,2013-01-28 20:42:00,
2013-01-28 13:52:00,20.0,16.0,-100.00,East,80,6.0,8.0,87,0.00,,,0.00,,2013-01-28 20:52:00,
2013-01-28 14:00:00,19.0,15.0,-100.00,East,93,6.0,9.0,82,0.00,,,0.00,,2013-01-28 21:00:00,
2013-01-28 14:42:00,19.0,15.0,-100.00,East,93,6.0,9.0,82,0.00,,,0.00,,2013-01-28 21:42:00,
2013-01-28 14:53:00,19.0,15.0,-100.00,East,93,6.0,9.0,82,0.00,,,0.00,,2013-01-28 21:53:00,
2013-01-28 15:00:00,19.0,15.0,-100.00,ENE,62,3.0,5.0,85,0.00,,,-99.99,,2013-01-28 22:00:00,
2013-01-28 15:42:00,19.0,15.0,-100.00,ENE,62,3.0,5.0,85,0.00,,,-99.99,,2013-01-28 22:42:00,
2013-01-28 15:52:00,19.0,15.0,-100.00,ENE,62,3.0,5.0,85,0.00,,,-99.99,,2013-01-28 22:52:00,
2013-01-28 16:00:00,23.0,11.0,-100.00,West,269,3.0,6.0,60,0.00,,,-99.99,,2013-01-28 23:00:00,
2013-01-28 16:32:00,23.0,11.0,-100.00,West,269,3.0,6.0,60,0.00,,,-99.99,,2013-01-28 23:32:00,
2013-01-28 16:42:00,23.0,11.0,-100.00,West,269,3.0,6.0,60,0.00,,,-99.99,,2013-01-28 23:42:00,
2013-01-28 16:53:00,23.0,11.0,-100.00,West,269,3.0,6.0,60,0.00,,,-99.99,,2013-01-28 23:53:00,
2013-01-28 17:00:00,17.0,9.0,-100.00,SW,220,2.0,4.0,69,0.00,,,0.00,,2013-01-29 00:00:00,
2013-01-28 17:42:00,17.0,9.0,-100.00,SW,220,2.0,4.0,69,0.00,,,0.00,,2013-01-29 00:42:00,
2013-01-28 17:52:00,17.0,9.0,-100.00,SW,220,2.0,4.0,69,0.00,,,0.00,,2013-01-29 00:52:00,
2013-01-28 18:00:00,16.0,1.0,-100.00,West,265,7.0,9.0,50,0.00,,,0.00,,2013-01-29 01:00:00,
2013-01-28 18:42:00,16.0,1.0,-100.00,West,265,7.0,9.0,50,0.00,,,0.00,,2013-01-29 01:42:00,
2013-01-28 18:52:00,16.0,1.0,-100.00,West,265,7.0,9.0,50,0.00,,,0.00,,2013-01-29 01:52:00,
2013-01-28 19:00:00,15.0,-1.0,-100.00,SW,228,10.0,13.0,49,0.00,,,0.00,,2013-01-29 02:00:00,
2013-01-28 19:41:00,15.0,-1.0,-100.00,SW,228,10.0,13.0,49,0.00,,,0.00,,2013-01-29 02:41:00,
2013-01-28 19:53:00,15.0,-1.0,-100.00,SW,228,10.0,13.0,49,0.00,,,0.00,,2013-01-29 02:53:00,
2013-01-28 20:00:00,11.0,-2.0,-100.00,WSW,245,13.0,18.0,54,0.00,,,0.00,,2013-01-29 03:00:00,
2013-01-28 20:32:00,11.0,-2.0,-100.00,WSW,245,13.0,18.0,54,0.00,,,0.00,,2013-01-29 03:32:00,
2013-01-28 20:42:00,11.0,-2.0,-100.00,WSW,245,13.0,18.0,54,0.00,,,0.00,,2013-01-29 03:42:00,
2013-01-28 20:53:00,11.0,-2.0,-100.00,WSW,245,13.0,18.0,54,0.00,,,0.00,,2013-01-29 03:53:00,
2013-01-28 21:00:00,10.0,-4.0,-100.00,WSW,255,8.0,11.0,52,0.00,,,0.00,,2013-01-29 04:00:00,
2013-01-28 21:32:00,10.0,-4.0,-100.00,WSW,255,8.0,11.0,52,0.00,,,0.00,,2013-01-29 04:32:00,
2013-01-28 21:41:00,10.0,-4.0,-100.00,WSW,255,8.0,11.0,52,0.00,,,0.00,,2013-01-29 04:41:00,
2013-01-28 21:52:00,10.0,-4.0,-100.00,WSW,255,8.0,11.0,52,0.00,,,0.00,,2013-01-29 04:52:00,
2013-01-28 22:00:00,12.0,-6.0,-100.00,WSW,240,10.0,13.0,44,0.00,,,0.00,,2013-01-29 05:00:00,
2013-01-28 22:32:00,12.0,-6.0,-100.00,WSW,240,10.0,13.0,44,0.00,,,0.00,,2013-01-29 05:32:00,
2013-01-28 22:42:00,12.0,-6.0,-100.00,WSW,240,10.0,13.0,44,0.00,,,0.00,,2013-01-29 05:42:00,
2013-01-28 22:52:00,12.0,-6.0,-100.00,WSW,240,10.0,13.0,44,0.00,,,0.00,,2013-01-29 05:52:00,
2013-01-28 23:00:00,10.0,-7.0,-100.00,West,266,11.0,13.0,45,0.00,,,0.00,,2013-01-29 06:00:00,
2013-01-28 23:31:00,10.0,-7.0,-100.00,West,266,11.0,13.0,45,0.00,,,0.00,,2013-01-29 06:31:00,
2013-01-28 23:41:00,10.0,-7.0,-100.00,West,266,11.0,13.0,45,0.00,,,0.00,,2013-01-29 06:41:00,
2013-01-28 23:52:00,10.0,-7.0,-100.00,West,266,11.0,13.0,45,0.00,,,0.00,,2013-01-29 06:52:00,